createdAt,value
2023-12-30T00:00:00.657Z,1.40
2023-12-30T00:00:18.771Z,1.55
2023-12-30T00:00:31.906Z,1.17
2023-12-30T00:00:43.985Z,1.58
2023-12-30T00:00:56.409Z,1.42
2023-12-30T00:01:08.457Z,1.42
2023-12-30T00:01:22.319Z,1.92
2023-12-30T00:01:34.621Z,1.95
2023-12-30T00:01:46.955Z,2.25
2023-12-30T00:01:59.012Z,1.95
2023-12-30T00:02:11.020Z,2.35
2023-12-30T00:02:23.046Z,3.10
2023-12-30T00:02:35.059Z,2.58
2023-12-30T00:02:49.909Z,2.40
2023-12-30T00:03:02.185Z,1.40
2023-12-30T00:03:14.382Z,0.88
2023-12-30T00:03:26.635Z,1.10
2023-12-30T00:03:38.703Z,1.23
2023-12-30T00:03:50.856Z,0.73
2023-12-30T00:04:03.181Z,0.65
2023-12-30T00:04:15.375Z,0.82
2023-12-30T00:04:27.502Z,0.95
2023-12-30T00:04:39.633Z,1.17
2023-12-30T00:04:51.724Z,1.20
2023-12-30T00:05:04.427Z,1.02
2023-12-30T00:05:17.269Z,0.93
2023-12-30T00:05:30.206Z,0.98
2023-12-30T00:05:42.318Z,1.30
2023-12-30T00:05:54.459Z,1.00
2023-12-30T00:06:06.701Z,0.85
2023-12-30T00:06:20.937Z,0.95
2023-12-30T00:06:33.768Z,1.20
2023-12-30T00:06:45.829Z,0.80
2023-12-30T00:06:57.955Z,0.70
2023-12-30T00:07:11.483Z,0.68
2023-12-30T00:07:23.560Z,0.90
2023-12-30T00:07:35.616Z,1.00
2023-12-30T00:07:47.717Z,1.05
2023-12-30T00:07:59.753Z,0.90
2023-12-30T00:08:11.781Z,0.73
2023-12-30T00:08:23.974Z,1.00
2023-12-30T00:08:36.071Z,1.40
2023-12-30T00:08:48.119Z,1.17
2023-12-30T00:09:00.100Z,0.95
2023-12-30T00:09:12.085Z,0.65
2023-12-30T00:09:24.096Z,0.95
2023-12-30T00:09:36.076Z,1.17
2023-12-30T00:09:48.101Z,1.00
2023-12-30T00:10:00.174Z,0.82
2023-12-30T00:10:12.440Z,1.08
2023-12-30T00:10:24.456Z,1.05
2023-12-30T00:10:36.496Z,1.35
2023-12-30T00:10:48.504Z,2.58
2023-12-30T00:11:00.677Z,2.15
2023-12-30T00:11:12.796Z,1.10
2023-12-30T00:11:24.917Z,2.35
2023-12-30T00:11:36.946Z,2.85
2023-12-30T00:11:49.090Z,3.63
2023-12-30T00:12:01.108Z,2.80
2023-12-30T00:12:13.117Z,1.02
2023-12-30T00:12:25.175Z,0.60
2023-12-30T00:12:37.186Z,0.70
2023-12-30T00:12:49.271Z,0.80
2023-12-30T00:13:03.644Z,1.52
2023-12-30T00:13:16.056Z,1.55
2023-12-30T00:13:28.052Z,0.73
2023-12-30T00:13:40.082Z,1.83
2023-12-30T00:13:52.158Z,1.90
2023-12-30T00:14:05.198Z,0.90
2023-12-30T00:14:17.225Z,0.68
2023-12-30T00:14:29.223Z,0.77
2023-12-30T00:14:41.219Z,1.05
2023-12-30T00:14:53.335Z,1.70
2023-12-30T00:15:05.901Z,2.05
2023-12-30T00:15:17.889Z,2.80
2023-12-30T00:15:29.957Z,2.00
2023-12-30T00:15:42.009Z,1.10
2023-12-30T00:15:54.113Z,1.13
2023-12-30T00:16:06.475Z,1.10
2023-12-30T00:16:18.573Z,1.17
2023-12-30T00:16:30.674Z,1.45
2023-12-30T00:16:43.095Z,3.08
2023-12-30T00:16:55.148Z,3.22
2023-12-30T00:17:07.150Z,2.00
2023-12-30T00:17:19.156Z,1.80
2023-12-30T00:17:31.146Z,1.90
2023-12-30T00:17:43.273Z,1.30
2023-12-30T00:17:55.444Z,1.58
2023-12-30T00:18:07.611Z,1.58
2023-12-30T00:18:19.913Z,1.33
2023-12-30T00:18:32.138Z,1.60
2023-12-30T00:18:44.392Z,1.35
2023-12-30T00:18:57.578Z,1.05
2023-12-30T00:19:10.007Z,1.88
2023-12-30T00:19:22.305Z,1.92
2023-12-30T00:19:36.375Z,1.02
2023-12-30T00:19:48.545Z,1.05
2023-12-30T00:20:00.762Z,1.10
2023-12-30T00:20:13.233Z,0.95
2023-12-30T00:20:26.915Z,0.60
2023-12-30T00:20:38.926Z,0.75
2023-12-30T00:20:50.937Z,1.15
2023-12-30T00:21:02.983Z,1.10
2023-12-30T00:21:22.264Z,1.05
2023-12-30T00:21:34.241Z,1.05
2023-12-30T00:21:46.280Z,1.23
2023-12-30T00:21:58.719Z,2.35
2023-12-30T00:22:10.765Z,2.15
2023-12-30T00:22:22.863Z,0.70
2023-12-30T00:22:34.980Z,0.88
2023-12-30T00:22:47.088Z,0.85
2023-12-30T00:22:59.280Z,1.30
2023-12-30T00:23:11.478Z,1.92
2023-12-30T00:23:24.018Z,1.67
2023-12-30T00:23:43.128Z,1.40
2023-12-30T00:23:58.100Z,0.88
2023-12-30T00:24:10.094Z,0.77
2023-12-30T00:24:22.068Z,0.75
2023-12-30T00:24:36.134Z,2.70
2023-12-30T00:24:48.250Z,2.83
2023-12-30T00:25:00.390Z,1.13
2023-12-30T00:25:12.601Z,1.98
2023-12-30T00:25:24.690Z,2.42
2023-12-30T00:25:36.745Z,2.28
2023-12-30T00:25:48.757Z,1.23
2023-12-30T00:26:00.797Z,1.40
2023-12-30T00:26:23.057Z,1.38
2023-12-30T00:26:35.059Z,1.30
2023-12-30T00:26:47.081Z,0.80
2023-12-30T00:26:59.056Z,0.80
2023-12-30T00:27:11.045Z,0.73
2023-12-30T00:27:23.388Z,1.45
2023-12-30T00:27:35.442Z,1.42
2023-12-30T00:27:50.438Z,1.17
2023-12-30T00:28:03.674Z,1.33
2023-12-30T00:28:15.829Z,2.00
2023-12-30T00:28:28.056Z,1.80
2023-12-30T00:28:40.133Z,1.27
2023-12-30T00:28:53.605Z,1.45
2023-12-30T00:29:05.602Z,2.13
2023-12-30T00:29:17.882Z,2.03
2023-12-30T00:29:29.937Z,1.67
2023-12-30T00:29:41.977Z,1.50
2023-12-30T00:29:54.024Z,1.70
2023-12-30T00:30:06.745Z,0.95
2023-12-30T00:30:18.908Z,1.48
2023-12-30T00:30:30.995Z,1.50
2023-12-30T00:30:43.060Z,1.50
2023-12-30T00:30:55.250Z,0.90
2023-12-30T00:31:07.374Z,0.88
2023-12-30T00:31:29.408Z,0.82
2023-12-30T00:31:41.556Z,1.20
2023-12-30T00:31:53.659Z,0.73
2023-12-30T00:32:06.305Z,1.25
2023-12-30T00:32:18.594Z,1.50
2023-12-30T00:32:30.727Z,1.42
2023-12-30T00:32:43.101Z,1.10
2023-12-30T00:32:55.250Z,1.10
2023-12-30T00:33:07.519Z,1.00
2023-12-30T00:33:19.641Z,1.02
2023-12-30T00:33:33.051Z,1.20
2023-12-30T00:33:45.416Z,1.40
2023-12-30T00:33:59.359Z,1.23
2023-12-30T00:34:11.564Z,1.15
2023-12-30T00:34:23.648Z,2.00
2023-12-30T00:34:36.023Z,2.03
2023-12-30T00:34:48.408Z,1.63
2023-12-30T00:35:00.528Z,0.90
2023-12-30T00:35:12.473Z,1.00
2023-12-30T00:35:24.608Z,0.98
2023-12-30T00:35:36.573Z,1.65
2023-12-30T00:35:48.607Z,1.80
2023-12-30T00:36:04.282Z,1.92
2023-12-30T00:36:16.522Z,2.13
2023-12-30T00:36:30.047Z,1.77
2023-12-30T00:36:44.373Z,1.33
2023-12-30T00:36:56.804Z,1.20
2023-12-30T00:37:08.859Z,0.98
2023-12-30T00:37:21.499Z,0.60
2023-12-30T00:37:33.827Z,1.38
2023-12-30T00:37:45.837Z,1.27
2023-12-30T00:37:57.907Z,1.13
2023-12-30T00:38:09.982Z,1.20
2023-12-30T00:38:24.417Z,1.20
2023-12-30T00:38:36.817Z,1.23
2023-12-30T00:38:48.878Z,1.15
2023-12-30T00:39:00.868Z,1.00
2023-12-30T00:39:12.932Z,0.88
2023-12-30T00:39:24.919Z,1.10
2023-12-30T00:39:41.002Z,1.10
2023-12-30T00:39:54.988Z,0.93
2023-12-30T00:40:07.715Z,0.80
2023-12-30T00:40:26.420Z,0.75
2023-12-30T00:40:39.372Z,0.98
2023-12-30T00:40:51.404Z,1.10
2023-12-30T00:41:03.588Z,1.30
2023-12-30T00:41:15.651Z,1.20
2023-12-30T00:41:28.160Z,0.88
2023-12-30T00:41:40.300Z,0.80
2023-12-30T00:41:52.408Z,0.93
2023-12-30T00:42:04.523Z,0.73
2023-12-30T00:42:16.701Z,0.70
2023-12-30T00:42:28.680Z,0.73
2023-12-30T00:42:40.816Z,0.90
2023-12-30T00:42:53.417Z,0.93
2023-12-30T00:43:05.620Z,0.70
2023-12-30T00:43:18.901Z,0.85
2023-12-30T00:43:31.039Z,1.70
2023-12-30T00:43:43.420Z,1.20
2023-12-30T00:43:55.433Z,1.13
2023-12-30T00:44:07.927Z,1.83
2023-12-30T00:44:20.192Z,1.73
2023-12-30T00:44:32.290Z,0.80
2023-12-30T00:44:44.287Z,1.00
2023-12-30T00:44:56.325Z,1.15
2023-12-30T00:45:08.699Z,1.42
2023-12-30T00:45:20.691Z,1.15
2023-12-30T00:45:32.667Z,1.35
2023-12-30T00:45:44.687Z,1.10
2023-12-30T00:45:59.360Z,1.20
2023-12-30T00:46:11.375Z,1.05
2023-12-30T00:46:23.499Z,1.25
2023-12-30T00:46:35.603Z,0.95
2023-12-30T00:46:47.575Z,0.77
2023-12-30T00:46:59.544Z,0.95
2023-12-30T00:47:12.733Z,1.80
2023-12-30T00:47:24.823Z,2.83
2023-12-30T00:47:36.903Z,2.80
2023-12-30T00:47:51.377Z,1.23
2023-12-30T00:48:03.805Z,0.80
2023-12-30T00:48:15.987Z,1.65
2023-12-30T00:48:28.156Z,1.75
2023-12-30T00:48:40.225Z,1.48
2023-12-30T00:48:57.265Z,0.47
2023-12-30T00:49:10.587Z,0.57
2023-12-30T00:49:23.210Z,1.20
2023-12-30T00:49:35.283Z,1.40
2023-12-30T00:49:47.344Z,1.10
2023-12-30T00:49:59.430Z,0.73
2023-12-30T00:50:11.493Z,2.00
2023-12-30T00:50:23.548Z,2.10
2023-12-30T00:50:47.697Z,0.63
2023-12-30T00:51:01.967Z,0.43
2023-12-30T00:51:13.995Z,0.98
2023-12-30T00:51:26.240Z,1.52
2023-12-30T00:51:38.365Z,2.03
2023-12-30T00:51:50.432Z,1.80
2023-12-30T00:52:02.803Z,1.48
2023-12-30T00:52:14.917Z,1.05
2023-12-30T00:52:27.016Z,0.63
2023-12-30T00:52:39.008Z,0.60
2023-12-30T00:52:50.970Z,0.55
2023-12-30T00:53:03.342Z,0.68
2023-12-30T00:53:15.693Z,1.42
2023-12-30T00:53:28.371Z,1.90
2023-12-30T00:53:40.599Z,1.90
2023-12-30T00:53:52.621Z,1.10
2023-12-30T00:54:04.691Z,0.80
2023-12-30T00:54:16.782Z,0.70
2023-12-30T00:54:34.974Z,0.70
2023-12-30T00:54:51.440Z,0.77
2023-12-30T00:55:04.063Z,1.83
2023-12-30T00:55:16.492Z,1.50
2023-12-30T00:55:28.652Z,1.55
2023-12-30T00:55:40.676Z,0.90
2023-12-30T00:55:55.018Z,0.88
2023-12-30T00:56:07.298Z,0.82
2023-12-30T00:56:19.828Z,0.68
2023-12-30T00:56:31.840Z,0.60
2023-12-30T00:56:43.821Z,0.45
2023-12-30T00:56:56.236Z,1.10
2023-12-30T00:57:08.593Z,1.23
2023-12-30T00:57:20.693Z,1.27
2023-12-30T00:57:32.750Z,0.73
2023-12-30T00:57:44.732Z,1.10
2023-12-30T00:57:57.221Z,1.00
2023-12-30T00:58:09.275Z,0.85
2023-12-30T00:58:25.020Z,0.60
2023-12-30T00:58:37.023Z,1.23
2023-12-30T00:58:49.079Z,1.40
2023-12-30T00:59:01.113Z,1.02
2023-12-30T00:59:13.248Z,1.27
2023-12-30T00:59:25.210Z,1.58
2023-12-30T00:59:37.262Z,1.67
2023-12-30T00:59:49.268Z,1.80
2023-12-30T01:00:01.335Z,1.02
2023-12-30T01:00:14.070Z,1.10
2023-12-30T01:00:26.153Z,0.95
2023-12-30T01:00:38.182Z,1.40
2023-12-30T01:00:51.413Z,2.33
2023-12-30T01:01:03.616Z,2.40
2023-12-30T01:01:15.830Z,0.80
2023-12-30T01:01:27.891Z,0.73
2023-12-30T01:01:40.308Z,0.60
2023-12-30T01:01:52.451Z,0.40
2023-12-30T01:02:04.807Z,0.50
2023-12-30T01:02:16.829Z,0.70
2023-12-30T01:02:28.826Z,1.30
2023-12-30T01:02:40.814Z,1.05
2023-12-30T01:02:52.899Z,0.82
2023-12-30T01:03:05.087Z,0.60
2023-12-30T01:03:17.775Z,0.60
2023-12-30T01:03:30.079Z,0.50
2023-12-30T01:03:42.336Z,0.65
2023-12-30T01:03:54.446Z,0.70
2023-12-30T01:04:07.371Z,0.82
2023-12-30T01:04:19.471Z,0.70
2023-12-30T01:04:31.527Z,0.70
2023-12-30T01:04:43.615Z,0.73
2023-12-30T01:04:55.773Z,0.80
2023-12-30T01:05:08.223Z,0.65
2023-12-30T01:05:21.182Z,0.50
2023-12-30T01:05:33.293Z,0.90
2023-12-30T01:05:45.900Z,1.10
2023-12-30T01:05:58.031Z,1.20
2023-12-30T01:06:10.020Z,1.40
2023-12-30T01:06:22.304Z,1.40
2023-12-30T01:06:34.288Z,0.75
2023-12-30T01:06:46.432Z,0.90
2023-12-30T01:06:59.144Z,1.23
2023-12-30T01:07:11.203Z,1.17
2023-12-30T01:07:23.294Z,0.95
2023-12-30T01:07:35.385Z,1.30
2023-12-30T01:07:47.394Z,1.10
2023-12-30T01:07:59.429Z,0.68
2023-12-30T01:08:11.990Z,0.40
2023-12-30T01:08:24.212Z,0.80
2023-12-30T01:08:36.685Z,0.93
2023-12-30T01:08:48.774Z,1.40
2023-12-30T01:09:01.902Z,1.42
2023-12-30T01:09:13.929Z,1.25
2023-12-30T01:09:25.942Z,1.02
2023-12-30T01:09:37.920Z,0.80
2023-12-30T01:09:49.969Z,0.68
2023-12-30T01:10:02.816Z,0.57
2023-12-30T01:10:18.611Z,0.60
2023-12-30T01:10:30.719Z,1.40
2023-12-30T01:10:44.762Z,1.40
2023-12-30T01:10:56.773Z,0.50
2023-12-30T01:11:08.860Z,0.50
2023-12-30T01:11:20.837Z,0.57
2023-12-30T01:11:32.896Z,2.53
2023-12-30T01:11:44.884Z,2.72
2023-12-30T01:11:57.037Z,1.50
2023-12-30T01:12:09.150Z,1.70
2023-12-30T01:12:21.157Z,1.92
2023-12-30T01:12:33.150Z,2.33
2023-12-30T01:12:45.215Z,0.93
2023-12-30T01:12:57.313Z,0.95
2023-12-30T01:13:09.537Z,1.40
2023-12-30T01:13:21.603Z,1.73
2023-12-30T01:13:33.674Z,1.17
2023-12-30T01:13:45.758Z,1.48
2023-12-30T01:13:57.761Z,2.13
2023-12-30T01:14:09.799Z,1.85
2023-12-30T01:14:21.856Z,0.55
2023-12-30T01:14:34.628Z,1.25
2023-12-30T01:14:46.678Z,1.40
2023-12-30T01:14:58.892Z,2.67
2023-12-30T01:15:11.173Z,2.42
2023-12-30T01:15:23.190Z,3.97
2023-12-30T01:15:36.127Z,4.05
2023-12-30T01:15:48.134Z,1.65
2023-12-30T01:16:00.246Z,1.00
2023-12-30T01:16:12.350Z,1.20
2023-12-30T01:16:24.433Z,0.73
2023-12-30T01:16:37.378Z,0.85
2023-12-30T01:16:49.501Z,1.10
2023-12-30T01:17:01.498Z,1.00
2023-12-30T01:17:13.534Z,0.75
2023-12-30T01:17:25.582Z,1.02
2023-12-30T01:17:37.843Z,1.30
2023-12-30T01:17:50.137Z,0.85
2023-12-30T01:18:03.420Z,1.10
2023-12-30T01:18:15.825Z,1.70
2023-12-30T01:18:28.236Z,1.67
2023-12-30T01:18:41.413Z,1.23
2023-12-30T01:18:53.861Z,0.63
2023-12-30T01:19:06.201Z,0.60
2023-12-30T01:19:18.290Z,0.52
2023-12-30T01:19:30.662Z,0.80
2023-12-30T01:19:42.772Z,1.10
2023-12-30T01:19:54.803Z,0.80
2023-12-30T01:20:09.311Z,0.88
2023-12-30T01:20:22.105Z,0.68
2023-12-30T01:20:34.114Z,0.70
2023-12-30T01:20:46.122Z,0.60
2023-12-30T01:20:58.142Z,0.60
2023-12-30T01:21:10.177Z,0.60
2023-12-30T01:21:22.216Z,0.77
2023-12-30T01:21:34.192Z,0.75
2023-12-30T01:21:46.189Z,0.65
2023-12-30T01:21:58.296Z,1.30
2023-12-30T01:22:12.104Z,2.07
2023-12-30T01:22:24.187Z,1.83
2023-12-30T01:22:36.263Z,1.45
2023-12-30T01:22:48.289Z,1.10
2023-12-30T01:23:00.607Z,0.98
2023-12-30T01:23:12.763Z,0.80
2023-12-30T01:23:24.805Z,1.48
2023-12-30T01:23:36.790Z,1.20
2023-12-30T01:23:48.767Z,0.90
2023-12-30T01:24:00.765Z,0.63
2023-12-30T01:24:12.755Z,0.68
2023-12-30T01:24:27.169Z,1.70
2023-12-30T01:24:39.222Z,1.58
2023-12-30T01:24:51.271Z,0.90
2023-12-30T01:25:03.713Z,1.10
2023-12-30T01:25:15.802Z,1.20
2023-12-30T01:25:27.862Z,0.52
2023-12-30T01:25:40.011Z,0.80
2023-12-30T01:25:52.066Z,1.10
2023-12-30T01:26:04.231Z,1.50
2023-12-30T01:26:16.205Z,1.90
2023-12-30T01:26:28.210Z,1.70
2023-12-30T01:26:40.274Z,1.23
2023-12-30T01:26:52.272Z,0.47
2023-12-30T01:27:04.569Z,0.85
2023-12-30T01:27:16.574Z,0.80
2023-12-30T01:27:28.604Z,1.20
2023-12-30T01:27:40.588Z,3.22
2023-12-30T01:27:52.632Z,4.00
2023-12-30T01:28:05.895Z,3.95
2023-12-30T01:28:17.954Z,1.95
2023-12-30T01:28:30.028Z,1.60
2023-12-30T01:28:42.067Z,1.00
2023-12-30T01:28:54.157Z,1.00
2023-12-30T01:29:06.281Z,1.00
2023-12-30T01:29:18.287Z,1.50
2023-12-30T01:29:30.562Z,1.65
2023-12-30T01:29:42.698Z,1.13
2023-12-30T01:29:54.697Z,0.70
2023-12-30T01:30:07.656Z,0.70
2023-12-30T01:30:20.340Z,0.98
2023-12-30T01:30:32.367Z,1.35
2023-12-30T01:30:44.585Z,2.45
2023-12-30T01:30:56.729Z,2.00
2023-12-30T01:31:08.888Z,0.77
2023-12-30T01:31:21.131Z,1.00
2023-12-30T01:31:33.289Z,0.95
2023-12-30T01:31:45.378Z,1.08
2023-12-30T01:31:57.926Z,1.45
2023-12-30T01:32:09.927Z,1.27
2023-12-30T01:32:22.096Z,1.30
2023-12-30T01:32:34.138Z,0.82
2023-12-30T01:32:46.742Z,0.85
2023-12-30T01:32:59.083Z,0.57
2023-12-30T01:33:11.892Z,0.63
2023-12-30T01:33:24.033Z,2.70
2023-12-30T01:33:36.203Z,2.67
2023-12-30T01:33:48.443Z,1.80
2023-12-30T01:34:00.706Z,0.60
2023-12-30T01:34:12.937Z,0.63
2023-12-30T01:34:25.211Z,0.73
2023-12-30T01:34:37.375Z,0.50
2023-12-30T01:34:49.401Z,0.68
2023-12-30T01:35:01.431Z,1.00
2023-12-30T01:35:15.776Z,1.27
2023-12-30T01:35:27.782Z,1.30
2023-12-30T01:35:39.766Z,0.98
2023-12-30T01:35:51.745Z,0.95
2023-12-30T01:36:05.123Z,1.10
2023-12-30T01:36:17.121Z,0.88
2023-12-30T01:36:29.393Z,0.60
2023-12-30T01:36:41.430Z,0.52
2023-12-30T01:36:55.643Z,0.60
2023-12-30T01:37:07.751Z,1.85
2023-12-30T01:37:20.437Z,2.20
2023-12-30T01:37:32.589Z,1.75
2023-12-30T01:37:44.666Z,1.70
2023-12-30T01:37:56.761Z,1.40
2023-12-30T01:38:08.760Z,1.05
2023-12-30T01:38:20.757Z,1.20
2023-12-30T01:38:32.926Z,1.00
2023-12-30T01:38:45.014Z,4.60
2023-12-30T01:38:56.983Z,4.28
2023-12-30T01:39:09.018Z,3.08
2023-12-30T01:39:21.067Z,1.45
2023-12-30T01:39:33.064Z,1.85
2023-12-30T01:39:45.128Z,2.47
2023-12-30T01:39:57.185Z,2.28
2023-12-30T01:40:10.053Z,2.20
2023-12-30T01:40:22.235Z,1.40
2023-12-30T01:40:34.535Z,1.00
2023-12-30T01:40:46.624Z,1.20
2023-12-30T01:40:58.678Z,1.55
2023-12-30T01:41:10.740Z,1.15
2023-12-30T01:41:22.800Z,0.80
2023-12-30T01:41:34.776Z,0.90
2023-12-30T01:41:46.899Z,1.02
2023-12-30T01:41:59.208Z,0.77
2023-12-30T01:42:12.178Z,0.82
2023-12-30T01:42:24.158Z,1.00
2023-12-30T01:42:36.428Z,1.33
2023-12-30T01:42:48.525Z,1.60
2023-12-30T01:43:26.216Z,0.50
2023-12-30T01:43:39.090Z,0.82
2023-12-30T01:43:51.172Z,1.40
2023-12-30T01:44:03.218Z,1.10
2023-12-30T01:44:15.219Z,0.90
2023-12-30T01:44:27.326Z,1.15
2023-12-30T01:44:39.371Z,1.55
2023-12-30T01:44:51.350Z,1.33
2023-12-30T01:45:03.577Z,1.45
2023-12-30T01:45:15.636Z,1.30
2023-12-30T01:45:27.657Z,0.88
2023-12-30T01:45:39.666Z,0.90
2023-12-30T01:45:53.851Z,1.33
2023-12-30T01:46:08.113Z,2.20
2023-12-30T01:46:20.416Z,1.48
2023-12-30T01:46:33.531Z,0.50
2023-12-30T01:46:45.868Z,0.57
2023-12-30T01:46:59.850Z,1.10
2023-12-30T01:47:11.960Z,1.20
2023-12-30T01:47:24.318Z,0.90
2023-12-30T01:47:37.621Z,1.80
2023-12-30T01:47:50.876Z,2.00
2023-12-30T01:48:03.700Z,0.80
2023-12-30T01:48:16.070Z,0.82
2023-12-30T01:48:29.998Z,1.63
2023-12-30T01:48:42.413Z,1.45
2023-12-30T01:48:54.870Z,1.40
2023-12-30T01:49:07.537Z,1.20
2023-12-30T01:49:19.740Z,0.88
2023-12-30T01:49:31.927Z,1.60
2023-12-30T01:49:45.461Z,1.50
2023-12-30T01:49:57.733Z,1.75
2023-12-30T01:50:10.519Z,1.33
2023-12-30T01:50:22.628Z,1.20
2023-12-30T01:50:34.907Z,0.75
2023-12-30T01:50:47.809Z,0.60
2023-12-30T01:51:01.839Z,0.63
2023-12-30T01:51:24.381Z,1.27
2023-12-30T01:51:38.553Z,1.85
2023-12-30T01:51:51.429Z,2.22
2023-12-30T01:52:04.416Z,2.15
2023-12-30T01:52:16.741Z,1.08
2023-12-30T01:52:29.435Z,1.23
2023-12-30T01:52:41.695Z,1.20
2023-12-30T01:52:53.918Z,1.38
2023-12-30T01:53:06.289Z,0.93
2023-12-30T01:53:19.464Z,1.92
2023-12-30T01:53:33.883Z,2.10
2023-12-30T01:53:46.213Z,0.88
2023-12-30T01:53:59.328Z,0.55
2023-12-30T01:54:11.505Z,0.52
2023-12-30T01:54:23.916Z,0.55
2023-12-30T01:54:35.997Z,0.68
2023-12-30T01:54:48.141Z,0.98
2023-12-30T01:55:00.496Z,1.00
2023-12-30T01:55:13.311Z,1.08
2023-12-30T01:55:25.424Z,1.20
2023-12-30T01:55:38.345Z,1.52
2023-12-30T01:55:51.889Z,2.90
2023-12-30T01:56:04.469Z,3.20
2023-12-30T01:56:18.343Z,1.38
2023-12-30T01:56:30.480Z,0.65
2023-12-30T01:56:42.709Z,0.70
2023-12-30T01:56:55.105Z,0.70
2023-12-30T01:57:09.526Z,2.13
2023-12-30T01:57:22.130Z,2.80
2023-12-30T01:57:34.489Z,3.08
2023-12-30T01:57:46.627Z,0.90
2023-12-30T01:57:59.167Z,0.63
2023-12-30T01:58:12.067Z,0.75
2023-12-30T01:58:24.205Z,1.08
2023-12-30T01:58:37.202Z,1.83
2023-12-30T01:58:51.698Z,1.35
2023-12-30T01:59:04.101Z,1.10
2023-12-30T01:59:19.170Z,0.90
2023-12-30T01:59:32.790Z,1.33
2023-12-30T01:59:45.841Z,1.10
2023-12-30T01:59:59.215Z,0.57
2023-12-30T02:00:18.508Z,0.60
2023-12-30T02:00:32.847Z,1.00
2023-12-30T02:00:53.127Z,0.98
2023-12-30T02:01:07.880Z,1.23
2023-12-30T02:01:22.743Z,1.13
2023-12-30T02:01:34.938Z,0.82
2023-12-30T02:01:47.369Z,0.82
2023-12-30T02:02:00.071Z,1.25
2023-12-30T02:02:12.506Z,1.42
2023-12-30T02:02:24.994Z,1.05
2023-12-30T02:02:38.052Z,0.60
2023-12-30T02:02:51.120Z,0.60
2023-12-30T02:03:04.980Z,0.60
2023-12-30T02:03:18.603Z,0.88
2023-12-30T02:03:30.946Z,0.93
2023-12-30T02:03:43.257Z,0.90
2023-12-30T02:03:56.476Z,0.70
2023-12-30T02:04:08.608Z,0.85
2023-12-30T02:04:20.822Z,1.13
2023-12-30T02:04:33.114Z,1.30
2023-12-30T02:04:45.246Z,1.10
2023-12-30T02:04:57.457Z,0.77
2023-12-30T02:05:09.560Z,1.87
2023-12-30T02:05:22.349Z,1.80
2023-12-30T02:05:35.548Z,1.77
2023-12-30T02:05:48.647Z,2.22
2023-12-30T02:06:01.233Z,1.40
2023-12-30T02:06:14.012Z,1.10
2023-12-30T02:06:26.060Z,0.57
2023-12-30T02:06:38.192Z,0.68
2023-12-30T02:06:50.654Z,0.68
2023-12-30T02:07:02.757Z,2.22
2023-12-30T02:07:14.877Z,2.22
2023-12-30T02:07:27.018Z,0.77
2023-12-30T02:07:39.068Z,0.75
2023-12-30T02:07:51.064Z,0.82
2023-12-30T02:08:03.238Z,1.00
2023-12-30T02:08:19.657Z,1.00
2023-12-30T02:08:31.688Z,1.00
2023-12-30T02:08:43.743Z,1.20
2023-12-30T02:08:55.917Z,1.10
2023-12-30T02:09:09.410Z,0.85
2023-12-30T02:09:22.066Z,0.90
2023-12-30T02:09:34.199Z,0.63
2023-12-30T02:09:46.238Z,0.50
2023-12-30T02:09:58.677Z,0.55
2023-12-30T02:10:10.758Z,0.65
2023-12-30T02:10:22.951Z,0.70
2023-12-30T02:10:35.176Z,1.60
2023-12-30T02:10:47.340Z,3.10
2023-12-30T02:10:59.425Z,2.75
2023-12-30T02:11:12.546Z,0.70
2023-12-30T02:11:24.671Z,1.80
2023-12-30T02:11:38.078Z,1.70
2023-12-30T02:11:50.118Z,0.88
2023-12-30T02:12:02.381Z,0.90
2023-12-30T02:12:14.416Z,0.98
2023-12-30T02:12:26.401Z,1.05
2023-12-30T02:12:38.519Z,0.85
2023-12-30T02:12:50.525Z,0.90
2023-12-30T02:13:02.877Z,0.68
2023-12-30T02:13:15.003Z,0.68
2023-12-30T02:13:27.078Z,2.65
2023-12-30T02:13:42.936Z,2.92
2023-12-30T02:13:55.048Z,3.05
2023-12-30T02:14:26.215Z,2.80
2023-12-30T02:14:38.299Z,1.10
2023-12-30T02:14:50.257Z,0.90
2023-12-30T02:15:12.941Z,0.73
2023-12-30T02:15:28.367Z,1.95
2023-12-30T02:15:40.360Z,3.22
2023-12-30T02:15:52.399Z,2.72
2023-12-30T02:16:04.645Z,3.40
2023-12-30T02:16:16.789Z,3.30
2023-12-30T02:16:28.867Z,1.40
2023-12-30T02:16:40.917Z,2.40
2023-12-30T02:16:52.902Z,2.20
2023-12-30T02:17:05.083Z,0.70
2023-12-30T02:17:17.269Z,0.75
2023-12-30T02:17:29.460Z,0.70
2023-12-30T02:17:41.839Z,1.23
2023-12-30T02:17:56.439Z,1.48
2023-12-30T02:18:08.656Z,1.00
2023-12-30T02:18:21.129Z,0.80
2023-12-30T02:18:33.202Z,0.82
2023-12-30T02:18:45.314Z,0.90
2023-12-30T02:18:57.966Z,0.85
2023-12-30T02:19:10.181Z,0.95
2023-12-30T02:19:22.417Z,0.90
2023-12-30T02:19:34.824Z,0.95
2023-12-30T02:19:47.295Z,1.10
2023-12-30T02:19:59.365Z,1.30
2023-12-30T02:20:11.813Z,0.77
2023-12-30T02:20:24.408Z,0.88
2023-12-30T02:20:36.564Z,0.95
2023-12-30T02:20:48.631Z,1.30
2023-12-30T02:21:00.685Z,1.23
2023-12-30T02:21:12.700Z,1.33
2023-12-30T02:21:24.879Z,1.23
2023-12-30T02:21:36.930Z,1.13
2023-12-30T02:21:50.464Z,1.17
2023-12-30T02:22:02.577Z,1.10
2023-12-30T02:22:16.276Z,1.15
2023-12-30T02:22:28.417Z,1.40
2023-12-30T02:22:49.692Z,1.38
2023-12-30T02:23:02.217Z,1.70
2023-12-30T02:23:14.446Z,1.58
2023-12-30T02:23:26.464Z,1.27
2023-12-30T02:23:38.480Z,1.20
2023-12-30T02:23:56.122Z,0.80
2023-12-30T02:24:08.200Z,0.80
2023-12-30T02:24:21.346Z,1.33
2023-12-30T02:24:33.467Z,1.30
2023-12-30T02:24:45.444Z,0.90
2023-12-30T02:25:01.073Z,0.60
2023-12-30T02:25:13.241Z,3.42
2023-12-30T02:25:25.320Z,3.85
2023-12-30T02:25:37.465Z,2.53
2023-12-30T02:25:50.153Z,1.08
2023-12-30T02:26:02.149Z,1.25
2023-12-30T02:26:14.110Z,1.13
2023-12-30T02:26:26.241Z,0.85
2023-12-30T02:26:38.236Z,0.65
2023-12-30T02:26:50.263Z,0.75
2023-12-30T02:27:02.364Z,0.93
2023-12-30T02:27:14.401Z,0.80
2023-12-30T02:27:28.988Z,0.47
2023-12-30T02:27:44.539Z,0.60
2023-12-30T02:27:56.972Z,1.30
2023-12-30T02:28:09.010Z,1.20
2023-12-30T02:28:21.100Z,0.65
2023-12-30T02:28:33.136Z,2.40
2023-12-30T02:28:45.213Z,2.58
2023-12-30T02:28:57.741Z,1.23
2023-12-30T02:29:10.286Z,1.15
2023-12-30T02:29:22.248Z,0.75
2023-12-30T02:29:34.261Z,0.50
2023-12-30T02:29:46.201Z,0.50
2023-12-30T02:29:58.705Z,0.60
2023-12-30T02:30:12.516Z,0.80
2023-12-30T02:30:25.522Z,0.60
2023-12-30T02:30:37.785Z,0.40
2023-12-30T02:30:49.974Z,0.52
2023-12-30T02:31:02.205Z,0.63
2023-12-30T02:31:14.460Z,0.70
2023-12-30T02:31:26.558Z,0.70
2023-12-30T02:31:47.018Z,1.13
2023-12-30T02:31:59.109Z,1.10
2023-12-30T02:32:11.159Z,0.57
2023-12-30T02:32:23.257Z,0.75
2023-12-30T02:32:35.373Z,1.15
2023-12-30T02:32:47.445Z,2.45
2023-12-30T02:32:59.805Z,2.38
2023-12-30T02:33:12.096Z,1.58
2023-12-30T02:33:24.383Z,1.02
2023-12-30T02:33:36.456Z,1.23
2023-12-30T02:33:48.587Z,1.30
2023-12-30T02:34:00.673Z,0.80
2023-12-30T02:34:17.502Z,0.63
2023-12-30T02:34:29.608Z,0.90
2023-12-30T02:34:41.652Z,1.08
2023-12-30T02:34:53.794Z,2.00
2023-12-30T02:35:06.225Z,2.17
2023-12-30T02:35:18.295Z,1.00
2023-12-30T02:35:30.313Z,1.08
2023-12-30T02:35:43.720Z,0.90
2023-12-30T02:35:55.849Z,1.30
2023-12-30T02:36:08.234Z,1.17
2023-12-30T02:36:20.255Z,1.25
2023-12-30T02:36:32.278Z,1.60
2023-12-30T02:36:45.508Z,1.97
2023-12-30T02:36:57.959Z,1.45
2023-12-30T02:37:09.991Z,0.98
2023-12-30T02:37:22.087Z,0.90
2023-12-30T02:37:34.225Z,1.95
2023-12-30T02:37:46.283Z,1.80
2023-12-30T02:37:58.354Z,1.65
2023-12-30T02:38:10.607Z,0.90
2023-12-30T02:38:22.621Z,0.90
2023-12-30T02:38:34.649Z,1.20
2023-12-30T02:38:46.682Z,0.77
2023-12-30T02:38:59.121Z,1.02
2023-12-30T02:39:11.717Z,0.98
2023-12-30T02:39:23.874Z,1.10
2023-12-30T02:39:35.862Z,1.90
2023-12-30T02:39:47.944Z,1.60
2023-12-30T02:40:00.135Z,1.20
2023-12-30T02:40:12.436Z,1.08
2023-12-30T02:40:24.491Z,1.20
2023-12-30T02:40:36.752Z,1.40
2023-12-30T02:40:49.100Z,1.67
2023-12-30T02:41:01.144Z,1.52
2023-12-30T02:41:13.259Z,1.70
2023-12-30T02:41:25.337Z,1.27
2023-12-30T02:41:37.385Z,1.10
2023-12-30T02:41:49.348Z,0.75
2023-12-30T02:42:01.357Z,0.85
2023-12-30T02:42:13.466Z,0.60
2023-12-30T02:42:25.642Z,0.60
2023-12-30T02:42:37.795Z,0.77
2023-12-30T02:42:49.905Z,0.77
2023-12-30T02:43:02.526Z,1.30
2023-12-30T02:43:14.981Z,1.40
2023-12-30T02:43:27.087Z,1.35
2023-12-30T02:43:53.742Z,0.65
2023-12-30T02:44:06.034Z,0.95
2023-12-30T02:44:20.235Z,1.20
2023-12-30T02:44:32.426Z,1.50
2023-12-30T02:44:44.432Z,1.80
2023-12-30T02:44:56.522Z,1.95
2023-12-30T02:45:09.261Z,1.40
2023-12-30T02:45:21.311Z,0.52
2023-12-30T02:45:33.316Z,2.83
2023-12-30T02:45:45.292Z,3.10
2023-12-30T02:45:57.330Z,0.77
2023-12-30T02:46:09.426Z,0.50
2023-12-30T02:46:21.531Z,0.47
2023-12-30T02:46:33.654Z,0.70
2023-12-30T02:46:46.098Z,1.40
2023-12-30T02:46:58.165Z,1.25
2023-12-30T02:47:12.509Z,1.30
2023-12-30T02:47:24.510Z,0.50
2023-12-30T02:47:36.641Z,0.60
2023-12-30T02:47:49.045Z,0.90
2023-12-30T02:48:01.340Z,1.35
2023-12-30T02:48:13.609Z,1.10